Time;durP1;ratioP1;P1;durP2;ratioP2;P2;SDS_P1;SDS_P2;PMS_P1;PMS_P2;Temp;Humidity;BMP_temperature;BMP_pressure;BME280_temperature;BME280_humidity;BME280_pressure;Samples;Min_cycle;Max_cycle;Signal;HPM_P1;HPM_P2
2022/12/18 00:01:19;;;;;;;38.28;15.88;;;;;;;;;;5000787;28;20550;-75
2022/12/18 00:03:45;;;;;;;32.22;14.40;;;;;;;;;;4990389;28;20477;-75
2022/12/18 00:06:13;;;;;;;36.00;15.77;;;;;;;;;;5000820;28;20113;-76
2022/12/18 00:08:39;;;;;;;29.00;13.40;;;;;;;;;;4995704;28;20030;-76
2022/12/18 00:11:06;;;;;;;31.35;14.98;;;;;;;;;;4999116;28;20042;-75
2022/12/18 00:13:32;;;;;;;29.52;13.52;;;;;;;;;;4995743;28;20178;-75
2022/12/18 00:16:05;;;;;;;32.45;14.82;;;;;;;;;;5000053;28;20042;-76
2022/12/18 00:18:32;;;;;;;34.63;14.20;;;;;;;;;;5000084;28;20034;-79
2022/12/18 00:21:02;;;;;;;39.47;15.32;;;;;;;;;;4999026;28;20474;-76
2022/12/18 00:23:29;;;;;;;34.03;15.57;;;;;;;;;;4990555;28;20727;-78
2022/12/18 00:25:55;;;;;;;29.40;13.57;;;;;;;;;;5000377;28;20559;-77
2022/12/18 00:28:21;;;;;;;32.47;14.98;;;;;;;;;;4994498;28;20030;-74
2022/12/18 00:30:51;;;;;;;34.38;15.70;;;;;;;;;;4983943;28;20042;-75
2022/12/18 00:33:17;;;;;;;27.65;13.88;;;;;;;;;;4988373;28;20509;-76
2022/12/18 00:35:43;;;;;;;35.80;16.38;;;;;;;;;;4999515;28;20051;-75
2022/12/18 00:38:09;;;;;;;29.40;13.60;;;;;;;;;;4999176;28;20044;-76
2022/12/18 00:40:35;;;;;;;35.67;15.80;;;;;;;;;;4998415;28;20042;-75
2022/12/18 00:43:01;;;;;;;35.42;14.85;;;;;;;;;;4983981;28;20470;-75
2022/12/18 00:45:29;;;;;;;35.80;15.10;;;;;;;;;;5001390;28;21712;-77
2022/12/18 00:47:55;;;;;;;34.78;15.55;;;;;;;;;;4985141;28;20046;-76
2022/12/18 00:50:21;;;;;;;33.70;14.85;;;;;;;;;;4985904;28;20049;-76
2022/12/18 00:52:47;;;;;;;44.00;16.35;;;;;;;;;;4998552;28;20054;-76
2022/12/18 00:55:14;;;;;;;34.13;15.23;;;;;;;;;;4998238;28;20026;-75
2022/12/18 00:57:40;;;;;;;35.35;14.70;;;;;;;;;;4998342;28;20038;-76
2022/12/18 01:00:09;;;;;;;32.50;15.05;;;;;;;;;;4981240;28;20439;-76
2022/12/18 01:02:35;;;;;;;32.80;15.27;;;;;;;;;;4998210;28;20053;-75
2022/12/18 01:05:01;;;;;;;34.45;16.10;;;;;;;;;;4993255;28;20093;-76
2022/12/18 01:07:27;;;;;;;31.98;14.90;;;;;;;;;;4981817;28;20030;-77
2022/12/18 01:09:53;;;;;;;35.45;15.45;;;;;;;;;;4993176;28;20030;-74
2022/12/18 01:12:20;;;;;;;36.15;16.40;;;;;;;;;;4988112;28;20066;-75
2022/12/18 01:14:48;;;;;;;31.80;14.77;;;;;;;;;;5005612;28;20048;-76
2022/12/18 01:17:14;;;;;;;32.45;14.48;;;;;;;;;;4999345;28;20038;-77
2022/12/18 01:19:40;;;;;;;33.63;15.68;;;;;;;;;;4996736;28;20062;-77
2022/12/18 01:22:06;;;;;;;32.03;15.80;;;;;;;;;;4994332;28;20033;-77
2022/12/18 01:24:32;;;;;;;32.97;15.10;;;;;;;;;;5012482;28;20030;-77
2022/12/18 01:26:58;;;;;;;31.90;14.52;;;;;;;;;;4998178;28;20022;-77
2022/12/18 01:29:24;;;;;;;33.60;15.40;;;;;;;;;;4996140;28;20622;-77
2022/12/18 01:31:51;;;;;;;38.72;16.35;;;;;;;;;;4996098;28;20042;-75
2022/12/18 01:34:17;;;;;;;37.13;16.27;;;;;;;;;;4996651;28;20045;-77
2022/12/18 01:36:43;;;;;;;32.13;14.70;;;;;;;;;;4998697;28;20037;-77
2022/12/18 01:39:13;;;;;;;47.75;16.88;;;;;;;;;;4996547;28;20030;-77
2022/12/18 01:44:42;;;;;;;38.15;16.73;;;;;;;;;;4997134;28;20037;-76
2022/12/18 01:47:08;;;;;;;36.53;16.15;;;;;;;;;;4996036;28;20058;-77
2022/12/18 01:49:34;;;;;;;34.72;16.30;;;;;;;;;;4995599;28;20121;-76
2022/12/18 01:52:03;;;;;;;33.88;16.27;;;;;;;;;;4996287;28;20027;-77
2022/12/18 01:54:29;;;;;;;37.15;16.17;;;;;;;;;;5001857;28;20030;-77
2022/12/18 01:56:55;;;;;;;35.00;15.93;;;;;;;;;;4995582;28;20117;-77
2022/12/18 01:59:21;;;;;;;34.05;15.73;;;;;;;;;;4995605;28;20046;-76
2022/12/18 02:01:47;;;;;;;34.20;16.33;;;;;;;;;;4995689;28;20030;-77
2022/12/18 02:04:22;;;;;;;32.88;15.30;;;;;;;;;;4995755;28;20026;-77
2022/12/18 02:06:52;;;;;;;32.80;15.38;;;;;;;;;;4995832;28;20026;-77
2022/12/18 02:09:24;;;;;;;32.65;14.95;;;;;;;;;;4995221;28;20435;-76
2022/12/18 02:11:54;;;;;;;33.53;16.08;;;;;;;;;;4995668;28;20037;-76
2022/12/18 02:14:23;;;;;;;32.90;15.32;;;;;;;;;;4995650;28;20049;-76
2022/12/18 02:16:49;;;;;;;34.55;16.80;;;;;;;;;;4995590;28;20132;-77
2022/12/18 02:19:38;;;;;;;32.77;15.10;;;;;;;;;;4998410;28;20447;-77
2022/12/18 02:22:04;;;;;;;35.25;15.52;;;;;;;;;;4995540;28;20274;-76
2022/12/18 02:24:35;;;;;;;32.30;15.97;;;;;;;;;;4995335;28;20066;-76
2022/12/18 02:27:03;;;;;;;30.38;15.82;;;;;;;;;;4998640;28;20305;-76
2022/12/18 02:29:38;;;;;;;41.75;16.17;;;;;;;;;;4994982;28;20030;-77
2022/12/18 02:32:07;;;;;;;38.85;16.40;;;;;;;;;;4989348;28;20041;-77
2022/12/18 02:34:35;;;;;;;35.58;17.23;;;;;;;;;;5011467;28;20041;-76
2022/12/18 02:37:03;;;;;;;36.90;17.30;;;;;;;;;;4995234;28;20037;-76
2022/12/18 02:39:30;;;;;;;31.77;16.30;;;;;;;;;;4995085;28;20022;-77
2022/12/18 02:41:57;;;;;;;33.00;16.30;;;;;;;;;;4994921;28;20022;-76
2022/12/18 02:44:23;;;;;;;35.88;17.00;;;;;;;;;;4994696;28;20109;-76
2022/12/18 02:46:53;;;;;;;34.30;16.10;;;;;;;;;;4986787;28;20427;-77
2022/12/18 02:49:37;;;;;;;34.15;16.25;;;;;;;;;;4995932;28;20439;-77
2022/12/18 02:52:03;;;;;;;37.95;15.38;;;;;;;;;;5006275;28;20034;-76
2022/12/18 02:54:43;;;;;;;28.87;15.10;;;;;;;;;;4987831;28;20045;-77
2022/12/18 02:57:31;;;;;;;33.72;15.23;;;;;;;;;;4999031;28;20812;-77
2022/12/18 03:00:11;;;;;;;31.90;15.55;;;;;;;;;;4947503;28;20046;-77
2022/12/18 03:03:01;;;;;;;35.78;16.38;;;;;;;;;;4998231;28;20466;-76
2022/12/18 03:05:46;;;;;;;31.75;14.50;;;;;;;;;;4983500;28;20113;-77
2022/12/18 03:08:24;;;;;;;29.00;15.18;;;;;;;;;;5010552;28;20026;-76
2022/12/18 03:10:54;;;;;;;32.00;15.50;;;;;;;;;;4993435;28;20336;-77
2022/12/18 03:13:35;;;;;;;36.80;15.63;;;;;;;;;;4994564;28;20041;-76
2022/12/18 03:16:02;;;;;;;29.77;14.52;;;;;;;;;;4995217;28;20347;-78
2022/12/18 03:18:34;;;;;;;34.17;14.90;;;;;;;;;;4993487;28;20030;-76
2022/12/18 03:21:04;;;;;;;34.20;15.57;;;;;;;;;;4993678;28;20455;-77
2022/12/18 03:23:33;;;;;;;33.47;15.02;;;;;;;;;;4994342;28;20049;-77
2022/12/18 03:26:00;;;;;;;31.85;15.23;;;;;;;;;;4995340;28;20252;-76
2022/12/18 03:28:28;;;;;;;29.55;14.48;;;;;;;;;;4997182;28;20335;-77
2022/12/18 03:30:56;;;;;;;28.20;14.60;;;;;;;;;;4991916;28;20089;-77
2022/12/18 03:33:26;;;;;;;31.45;14.85;;;;;;;;;;4996650;28;20447;-76
2022/12/18 03:35:52;;;;;;;33.35;15.27;;;;;;;;;;4994998;28;20088;-77
2022/12/18 03:38:18;;;;;;;34.55;16.15;;;;;;;;;;4994747;28;20034;-78
2022/12/18 03:40:49;;;;;;;34.58;15.45;;;;;;;;;;4996148;28;20034;-77
2022/12/18 03:43:25;;;;;;;32.75;14.93;;;;;;;;;;4994436;28;20063;-77
2022/12/18 03:45:59;;;;;;;33.83;15.63;;;;;;;;;;4994284;28;20027;-75
2022/12/18 03:48:32;;;;;;;34.38;15.75;;;;;;;;;;4996019;28;20030;-78
2022/12/18 03:51:00;;;;;;;31.45;14.90;;;;;;;;;;5000641;28;20113;-77
2022/12/18 03:53:45;;;;;;;33.17;14.90;;;;;;;;;;4989669;28;20038;-77
2022/12/18 03:56:13;;;;;;;29.75;15.23;;;;;;;;;;4997080;28;20065;-77
2022/12/18 03:58:41;;;;;;;31.13;16.80;;;;;;;;;;4993986;28;20039;-76
2022/12/18 04:01:12;;;;;;;32.42;15.45;;;;;;;;;;4993882;28;20354;-76
2022/12/18 04:03:42;;;;;;;31.27;14.98;;;;;;;;;;4994129;28;20022;-75
2022/12/18 04:06:10;;;;;;;31.73;14.63;;;;;;;;;;4993929;28;20023;-76
2022/12/18 04:08:36;;;;;;;28.60;14.75;;;;;;;;;;4993522;28;20085;-77
2022/12/18 04:11:02;;;;;;;29.85;15.13;;;;;;;;;;4993287;28;20066;-76
2022/12/18 04:13:30;;;;;;;33.60;15.60;;;;;;;;;;4995152;28;20106;-76
2022/12/18 04:15:56;;;;;;;32.67;15.50;;;;;;;;;;4994541;28;20026;-76
2022/12/18 04:18:22;;;;;;;31.73;15.82;;;;;;;;;;4993367;28;20030;-76
2022/12/18 04:20:48;;;;;;;30.20;15.65;;;;;;;;;;4993553;28;20089;-77
2022/12/18 04:23:16;;;;;;;34.60;15.93;;;;;;;;;;4994333;28;20038;-77
2022/12/18 04:25:42;;;;;;;31.67;14.57;;;;;;;;;;4994799;28;20026;-76
2022/12/18 04:28:08;;;;;;;31.88;16.50;;;;;;;;;;4993686;28;20094;-77
2022/12/18 04:30:34;;;;;;;32.95;15.45;;;;;;;;;;4993680;28;20037;-76
2022/12/18 04:33:00;;;;;;;34.95;15.93;;;;;;;;;;5010333;28;20027;-75
2022/12/18 04:35:27;;;;;;;34.42;16.73;;;;;;;;;;4993529;28;20030;-77
2022/12/18 04:37:53;;;;;;;32.53;16.23;;;;;;;;;;4997753;28;20117;-77
2022/12/18 04:40:21;;;;;;;34.17;16.40;;;;;;;;;;4994830;28;20110;-75
2022/12/18 04:42:47;;;;;;;31.40;15.80;;;;;;;;;;4993835;28;20031;-76
2022/12/18 04:45:13;;;;;;;34.28;16.58;;;;;;;;;;5003070;28;20053;-77
2022/12/18 04:47:41;;;;;;;35.22;17.80;;;;;;;;;;4997151;28;20105;-76
2022/12/18 04:50:08;;;;;;;39.28;18.17;;;;;;;;;;4997826;28;20036;-76
2022/12/18 04:52:34;;;;;;;36.95;18.33;;;;;;;;;;4996948;28;20030;-77
2022/12/18 04:55:00;;;;;;;40.33;18.77;;;;;;;;;;4991839;28;20030;-76
2022/12/18 04:57:26;;;;;;;35.30;16.65;;;;;;;;;;4997195;28;20103;-76
2022/12/18 04:59:52;;;;;;;36.40;17.33;;;;;;;;;;4998047;28;20030;-77
2022/12/18 05:02:18;;;;;;;37.58;17.10;;;;;;;;;;4997630;28;20030;-77
2022/12/18 05:04:44;;;;;;;36.72;17.08;;;;;;;;;;4997068;28;20416;-77
2022/12/18 05:07:10;;;;;;;34.95;17.98;;;;;;;;;;4996620;28;20049;-77
2022/12/18 05:09:36;;;;;;;39.25;17.92;;;;;;;;;;4997072;28;20026;-76
2022/12/18 05:12:05;;;;;;;33.80;16.65;;;;;;;;;;4996391;28;20410;-77
2022/12/18 05:14:31;;;;;;;37.00;16.70;;;;;;;;;;5036068;22;20041;-77
2022/12/18 05:16:57;;;;;;;40.92;17.42;;;;;;;;;;5017961;28;20049;-76
2022/12/18 05:19:25;;;;;;;34.90;16.33;;;;;;;;;;5015713;28;20021;-76
2022/12/18 05:21:53;;;;;;;42.88;18.83;;;;;;;;;;5014881;28;20025;-76
2022/12/18 05:24:19;;;;;;;40.53;18.70;;;;;;;;;;5019025;28;20049;-76
2022/12/18 05:26:49;;;;;;;37.60;17.00;;;;;;;;;;5018947;28;20030;-77
2022/12/18 05:29:15;;;;;;;36.25;17.85;;;;;;;;;;5018786;28;20312;-76
2022/12/18 05:31:41;;;;;;;35.10;17.67;;;;;;;;;;5019114;28;20037;-76
2022/12/18 05:34:07;;;;;;;41.22;19.30;;;;;;;;;;5030033;28;20025;-77
2022/12/18 05:36:33;;;;;;;41.97;19.65;;;;;;;;;;5018707;28;20026;-76
2022/12/18 05:39:00;;;;;;;36.53;17.85;;;;;;;;;;5019290;28;20025;-77
2022/12/18 05:41:26;;;;;;;40.13;16.25;;;;;;;;;;5033141;28;20022;-76
2022/12/18 05:43:52;;;;;;;38.40;17.75;;;;;;;;;;5035334;28;20037;-77
2022/12/18 05:46:18;;;;;;;34.20;17.92;;;;;;;;;;5022267;28;20424;-76
2022/12/18 05:48:48;;;;;;;37.55;17.67;;;;;;;;;;5018534;28;20030;-77
2022/12/18 05:51:16;;;;;;;38.60;18.23;;;;;;;;;;5037064;28;20056;-76
2022/12/18 05:53:43;;;;;;;39.83;18.70;;;;;;;;;;5019041;28;20041;-76
2022/12/18 05:56:10;;;;;;;41.60;17.52;;;;;;;;;;5024597;28;20508;-76
2022/12/18 05:58:36;;;;;;;42.53;18.17;;;;;;;;;;5028452;28;20040;-77
2022/12/18 06:01:10;;;;;;;40.55;17.88;;;;;;;;;;5021605;28;20018;-76
2022/12/18 06:03:36;;;;;;;38.40;19.02;;;;;;;;;;5018284;28;20045;-76
2022/12/18 06:06:02;;;;;;;36.67;18.42;;;;;;;;;;5041145;28;20066;-76
2022/12/18 06:08:28;;;;;;;36.30;17.70;;;;;;;;;;5028935;28;20037;-76
2022/12/18 06:10:55;;;;;;;38.80;18.63;;;;;;;;;;5018162;28;20029;-77
2022/12/18 06:13:21;;;;;;;39.78;18.98;;;;;;;;;;5018305;28;20370;-77
2022/12/18 06:15:47;;;;;;;37.67;18.00;;;;;;;;;;5015266;28;20048;-77
2022/12/18 06:18:16;;;;;;;40.33;18.67;;;;;;;;;;5018426;28;20450;-77
2022/12/18 06:20:44;;;;;;;35.47;17.80;;;;;;;;;;5017778;28;20018;-76
2022/12/18 06:23:13;;;;;;;41.03;18.73;;;;;;;;;;5017934;28;20446;-77
2022/12/18 06:25:39;;;;;;;41.88;19.08;;;;;;;;;;5025019;28;20143;-77
2022/12/18 06:28:08;;;;;;;36.45;17.25;;;;;;;;;;5018170;28;20112;-76
2022/12/18 06:30:34;;;;;;;40.60;18.55;;;;;;;;;;5017603;28;20454;-77
2022/12/18 06:33:00;;;;;;;39.28;19.27;;;;;;;;;;5032778;28;20025;-77
2022/12/18 06:35:26;;;;;;;38.63;18.58;;;;;;;;;;5015980;28;20071;-76
2022/12/18 06:37:52;;;;;;;41.25;19.25;;;;;;;;;;5035163;28;20025;-77
2022/12/18 06:40:18;;;;;;;41.50;19.98;;;;;;;;;;5017292;28;20029;-78
2022/12/18 06:42:44;;;;;;;38.33;18.75;;;;;;;;;;5035169;28;20014;-77
2022/12/18 06:45:11;;;;;;;38.05;18.67;;;;;;;;;;5026319;28;20072;-77
2022/12/18 06:47:37;;;;;;;39.13;18.55;;;;;;;;;;5017103;28;20109;-77
2022/12/18 06:50:03;;;;;;;36.42;17.73;;;;;;;;;;5017263;28;20135;-76
2022/12/18 06:52:31;;;;;;;38.28;18.25;;;;;;;;;;5023739;28;20030;-76
2022/12/18 06:54:57;;;;;;;38.05;17.98;;;;;;;;;;5023552;28;20044;-77
2022/12/18 06:57:24;;;;;;;40.28;18.83;;;;;;;;;;5044766;28;20033;-77
2022/12/18 06:59:50;;;;;;;38.25;18.08;;;;;;;;;;5017336;28;20026;-77
2022/12/18 07:02:16;;;;;;;38.30;17.60;;;;;;;;;;5017555;28;20022;-77
2022/12/18 07:04:42;;;;;;;38.92;19.02;;;;;;;;;;5023097;28;20659;-76
2022/12/18 07:07:10;;;;;;;42.60;17.42;;;;;;;;;;5020382;28;20017;-77
2022/12/18 07:09:36;;;;;;;41.22;19.60;;;;;;;;;;5017805;28;20025;-76
2022/12/18 07:12:02;;;;;;;36.75;18.27;;;;;;;;;;5041924;28;20091;-77
2022/12/18 07:14:28;;;;;;;35.53;16.58;;;;;;;;;;5018836;28;20025;-76
2022/12/18 07:16:54;;;;;;;36.55;16.95;;;;;;;;;;5014549;28;20033;-75
2022/12/18 07:19:20;;;;;;;39.55;17.75;;;;;;;;;;5034763;28;20092;-78
2022/12/18 07:21:46;;;;;;;37.20;17.85;;;;;;;;;;5013276;28;20120;-76
2022/12/18 07:24:14;;;;;;;35.78;18.27;;;;;;;;;;5032479;28;20130;-76
2022/12/18 07:26:40;;;;;;;37.28;17.70;;;;;;;;;;5017875;28;20029;-78
2022/12/18 07:29:06;;;;;;;37.88;17.73;;;;;;;;;;5020335;28;20041;-80
2022/12/18 07:31:33;;;;;;;37.35;18.00;;;;;;;;;;5047849;28;20021;-77
2022/12/18 07:33:59;;;;;;;36.30;17.38;;;;;;;;;;5017058;28;20033;-77
2022/12/18 07:36:25;;;;;;;37.10;17.92;;;;;;;;;;5017051;28;20032;-77
2022/12/18 07:38:52;;;;;;;36.00;16.98;;;;;;;;;;5034266;28;20021;-75
2022/12/18 07:41:18;;;;;;;38.42;17.52;;;;;;;;;;5015256;28;20039;-77
2022/12/18 07:43:44;;;;;;;35.67;17.70;;;;;;;;;;5041982;28;20017;-76
2022/12/18 07:46:10;;;;;;;33.58;17.27;;;;;;;;;;5038012;28;20026;-78
2022/12/18 07:48:36;;;;;;;36.60;17.35;;;;;;;;;;5029026;28;20037;-77
2022/12/18 07:51:04;;;;;;;39.43;18.87;;;;;;;;;;5021397;28;20404;-77
2022/12/18 07:53:33;;;;;;;37.60;18.05;;;;;;;;;;5019971;28;20318;-75
2022/12/18 07:56:03;;;;;;;37.58;18.00;;;;;;;;;;5031787;28;20438;-77
2022/12/18 07:58:30;;;;;;;38.72;18.70;;;;;;;;;;5016439;28;20025;-77
2022/12/18 08:01:05;;;;;;;36.88;18.75;;;;;;;;;;5010984;28;20499;-77
2022/12/18 08:03:31;;;;;;;34.03;16.92;;;;;;;;;;5008167;28;20427;-76
2022/12/18 08:06:03;;;;;;;36.17;17.40;;;;;;;;;;5016475;28;20025;-77
2022/12/18 08:08:32;;;;;;;37.80;18.98;;;;;;;;;;5016178;28;20021;-77
2022/12/18 08:11:05;;;;;;;37.15;17.70;;;;;;;;;;5035731;28;20017;-78
2022/12/18 08:13:31;;;;;;;36.47;17.73;;;;;;;;;;5018000;28;20029;-77
2022/12/18 08:15:57;;;;;;;35.65;16.60;;;;;;;;;;5017588;28;20033;-78
2022/12/18 08:18:24;;;;;;;31.05;16.52;;;;;;;;;;5020173;28;20144;-77
2022/12/18 08:20:50;;;;;;;37.13;17.20;;;;;;;;;;5020132;28;21006;-77
2022/12/18 08:23:16;;;;;;;39.45;17.73;;;;;;;;;;5019819;28;20025;-78
2022/12/18 08:25:42;;;;;;;33.45;17.38;;;;;;;;;;5037022;28;20080;-77
2022/12/18 08:28:08;;;;;;;36.67;16.85;;;;;;;;;;5017047;28;20099;-77
2022/12/18 08:30:34;;;;;;;38.97;18.40;;;;;;;;;;5038484;28;20030;-76
2022/12/18 08:33:00;;;;;;;38.13;17.33;;;;;;;;;;5020998;28;20025;-77
2022/12/18 08:35:26;;;;;;;36.85;16.70;;;;;;;;;;5019967;28;20350;-77
2022/12/18 08:37:55;;;;;;;37.60;17.60;;;;;;;;;;5037756;28;20025;-77
2022/12/18 08:40:21;;;;;;;34.50;17.80;;;;;;;;;;5020431;28;20033;-78
2022/12/18 08:45:31;;;;;;;38.80;16.85;;;;;;;;;;5039395;28;20337;-77
2022/12/18 08:47:58;;;;;;;37.35;17.63;;;;;;;;;;5021221;28;20116;-76
2022/12/18 08:50:26;;;;;;;32.93;16.23;;;;;;;;;;5029622;28;20017;-76
2022/12/18 08:52:52;;;;;;;47.60;18.17;;;;;;;;;;5016684;28;20297;-78
2022/12/18 08:55:18;;;;;;;32.22;17.42;;;;;;;;;;5016340;28;20285;-77
2022/12/18 08:57:48;;;;;;;30.10;15.20;;;;;;;;;;5020060;28;20026;-77
2022/12/18 09:00:15;;;;;;;35.13;16.55;;;;;;;;;;5017440;28;20076;-75
2022/12/18 09:02:41;;;;;;;33.42;16.75;;;;;;;;;;5019612;28;20057;-76
2022/12/18 09:05:07;;;;;;;36.10;16.03;;;;;;;;;;5031173;28;20022;-77
2022/12/18 09:07:33;;;;;;;35.57;15.43;;;;;;;;;;5018814;28;20257;-76
2022/12/18 09:09:59;;;;;;;34.57;15.87;;;;;;;;;;5029668;28;20329;-77
2022/12/18 09:12:27;;;;;;;29.83;15.80;;;;;;;;;;5024503;28;20724;-75
2022/12/18 09:14:54;;;;;;;33.47;16.13;;;;;;;;;;5009525;28;20319;-77
2022/12/18 09:17:22;;;;;;;30.23;16.10;;;;;;;;;;5016930;28;20283;-76
2022/12/18 09:19:49;;;;;;;36.67;16.73;;;;;;;;;;5015817;28;20288;-76
2022/12/18 09:22:15;;;;;;;34.60;16.63;;;;;;;;;;5042306;28;20260;-77
2022/12/18 09:24:43;;;;;;;42.97;16.20;;;;;;;;;;5036811;28;20268;-77
2022/12/18 09:27:12;;;;;;;28.63;15.27;;;;;;;;;;5033867;28;20260;-75
2022/12/18 09:29:38;;;;;;;38.27;17.57;;;;;;;;;;5046794;28;20279;-77
2022/12/18 09:32:05;;;;;;;28.60;15.80;;;;;;;;;;5034466;28;20271;-76
2022/12/18 09:34:31;;;;;;;31.77;15.80;;;;;;;;;;5026728;28;20280;-76
2022/12/18 09:36:57;;;;;;;31.70;16.03;;;;;;;;;;5032960;28;20264;-76
2022/12/18 09:39:23;;;;;;;26.87;15.27;;;;;;;;;;5007740;28;20295;-77
2022/12/18 09:41:56;;;;;;;32.63;15.30;;;;;;;;;;5023030;28;20326;-77
2022/12/18 09:44:22;;;;;;;31.90;16.23;;;;;;;;;;5011907;28;20330;-77
2022/12/18 09:47:11;;;;;;;28.03;14.20;;;;;;;;;;5022274;28;20652;-76
2022/12/18 09:49:44;;;;;;;29.23;15.43;;;;;;;;;;5015608;28;20268;-78
2022/12/18 09:52:14;;;;;;;30.47;15.93;;;;;;;;;;5022002;28;20798;-78
2022/12/18 09:54:41;;;;;;;29.03;14.97;;;;;;;;;;5017893;28;20634;-76
2022/12/18 09:57:11;;;;;;;28.97;15.13;;;;;;;;;;5018369;28;20619;-78
2022/12/18 09:59:39;;;;;;;28.60;14.93;;;;;;;;;;5014716;28;20296;-78
2022/12/18 10:02:20;;;;;;;27.07;15.47;;;;;;;;;;5024551;28;20367;-76
2022/12/18 10:04:51;;;;;;;28.50;15.07;;;;;;;;;;5033918;28;20264;-76
2022/12/18 10:07:23;;;;;;;24.73;13.60;;;;;;;;;;5022142;28;20643;-77
2022/12/18 10:09:54;;;;;;;31.98;15.93;;;;;;;;;;5015966;28;20279;-77
2022/12/18 10:12:42;;;;;;;26.90;13.73;;;;;;;;;;5020692;28;20107;-76
2022/12/18 10:15:16;;;;;;;33.07;14.53;;;;;;;;;;5014195;28;20283;-78
2022/12/18 10:17:48;;;;;;;28.23;14.37;;;;;;;;;;5017979;28;20323;-77
2022/12/18 10:20:18;;;;;;;28.95;15.32;;;;;;;;;;5037019;28;20317;-76
2022/12/18 10:22:51;;;;;;;35.23;15.77;;;;;;;;;;5014738;28;20028;-78
2022/12/18 10:25:17;;;;;;;27.80;15.43;;;;;;;;;;5017075;28;20756;-77
2022/12/18 10:27:43;;;;;;;30.67;15.77;;;;;;;;;;5016187;28;20334;-78
2022/12/18 10:30:16;;;;;;;24.83;13.87;;;;;;;;;;5011993;28;20265;-75
2022/12/18 10:32:43;;;;;;;25.63;14.53;;;;;;;;;;5017302;28;20280;-76
2022/12/18 10:35:16;;;;;;;26.67;13.53;;;;;;;;;;5033757;28;20264;-76
2022/12/18 10:38:00;;;;;;;30.03;13.13;;;;;;;;;;5025809;28;20259;-76
2022/12/18 10:40:29;;;;;;;28.00;14.23;;;;;;;;;;5021786;28;20292;-78
2022/12/18 10:43:06;;;;;;;28.77;15.67;;;;;;;;;;5017735;28;20300;-80
2022/12/18 10:45:32;;;;;;;25.50;13.70;;;;;;;;;;5016619;28;20348;-76
2022/12/18 10:48:01;;;;;;;28.23;15.27;;;;;;;;;;5013708;28;20283;-78
2022/12/18 10:50:27;;;;;;;32.40;15.77;;;;;;;;;;5018223;28;20291;-79
2022/12/18 10:53:00;;;;;;;28.33;14.67;;;;;;;;;;5036635;28;20275;-79
2022/12/18 10:55:26;;;;;;;;;;;;;;;;;;5016176;28;20712;-78
2022/12/18 10:57:52;;;;;;;27.50;14.00;;;;;;;;;;5040522;28;19909;-76
2022/12/18 11:00:23;;;;;;;26.00;14.70;;;;;;;;;;5014305;28;20295;-76
2022/12/18 11:02:50;;;;;;;29.70;14.73;;;;;;;;;;5017338;28;20267;-78
2022/12/18 11:05:33;;;;;;;27.80;14.77;;;;;;;;;;5020739;28;20257;-78
2022/12/18 11:07:59;;;;;;;31.70;14.80;;;;;;;;;;5011936;28;20586;-77
2022/12/18 11:10:31;;;;;;;25.07;14.57;;;;;;;;;;5022626;28;20034;-77
2022/12/18 11:13:09;;;;;;;24.70;13.68;;;;;;;;;;5030846;28;20307;-77
2022/12/18 11:15:35;;;;;;;28.20;13.93;;;;;;;;;;5010520;28;20429;-80
2022/12/18 11:18:01;;;;;;;26.73;14.60;;;;;;;;;;5025872;28;20279;-79
2022/12/18 11:20:32;;;;;;;26.87;14.37;;;;;;;;;;5007832;28;20365;-78
2022/12/18 11:23:14;;;;;;;27.20;14.67;;;;;;;;;;5009190;28;20454;-78
2022/12/18 11:26:03;;;;;;;26.97;14.23;;;;;;;;;;5010385;28;20353;-77
2022/12/18 11:28:40;;;;;;;27.20;14.30;;;;;;;;;;5026268;28;20276;-77
2022/12/18 11:31:09;;;;;;;25.27;13.97;;;;;;;;;;5012705;28;20280;-77
2022/12/18 11:33:37;;;;;;;25.27;13.30;;;;;;;;;;5022016;28;20294;-77
2022/12/18 11:36:10;;;;;;;29.13;14.20;;;;;;;;;;5007250;28;20280;-77
2022/12/18 11:38:36;;;;;;;;;;;;;;;;;;5011491;28;20297;-76
2022/12/18 11:41:05;;;;;;;29.37;14.80;;;;;;;;;;5012097;28;19963;-77
2022/12/18 11:43:50;;;;;;;31.27;14.43;;;;;;;;;;5008592;28;20033;-77
2022/12/18 11:46:19;;;;;;;30.10;13.10;;;;;;;;;;5005822;28;20292;-76
2022/12/18 11:48:51;;;;;;;30.60;14.93;;;;;;;;;;5011180;28;20284;-76
2022/12/18 11:51:26;;;;;;;25.63;14.43;;;;;;;;;;5024951;28;20423;-76
2022/12/18 11:53:52;;;;;;;28.27;14.50;;;;;;;;;;5009777;28;20029;-77
2022/12/18 11:56:32;;;;;;;25.90;13.90;;;;;;;;;;5010807;28;20268;-77
2022/12/18 11:59:04;;;;;;;29.10;14.50;;;;;;;;;;5006832;28;20319;-77
2022/12/18 12:01:30;;;;;;;33.88;16.42;;;;;;;;;;5028028;28;21129;-77
2022/12/18 12:04:02;;;;;;;30.17;15.17;;;;;;;;;;5008964;28;20060;-76
2022/12/18 12:06:38;;;;;;;30.30;14.82;;;;;;;;;;5013507;28;20272;-75
2022/12/18 12:09:07;;;;;;;26.63;14.97;;;;;;;;;;5009702;28;20117;-78
2022/12/18 12:11:40;;;;;;;30.13;15.47;;;;;;;;;;5010985;28;20271;-78
2022/12/18 12:14:21;;;;;;;28.03;15.37;;;;;;;;;;5008441;28;20298;-76
2022/12/18 12:16:59;;;;;;;28.57;14.93;;;;;;;;;;5009683;28;20331;-76
2022/12/18 12:19:39;;;;;;;32.73;15.87;;;;;;;;;;5011337;28;20300;-78
2022/12/18 12:22:11;;;;;;;29.70;14.80;;;;;;;;;;5012393;28;20276;-78
2022/12/18 12:24:56;;;;;;;31.90;15.60;;;;;;;;;;5015521;28;20272;-76
2022/12/18 12:27:37;;;;;;;26.90;14.47;;;;;;;;;;5025765;28;21913;-76
2022/12/18 12:30:07;;;;;;;27.07;14.97;;;;;;;;;;5029823;28;20280;-77
2022/12/18 12:32:33;;;;;;;35.20;17.10;;;;;;;;;;5009981;28;20281;-77
2022/12/18 12:35:08;;;;;;;26.10;14.67;;;;;;;;;;5028559;28;21966;-79
2022/12/18 12:37:34;;;;;;;29.57;14.80;;;;;;;;;;5009753;28;20281;-78
2022/12/18 12:40:01;;;;;;;30.90;16.50;;;;;;;;;;5009715;28;20299;-78
2022/12/18 12:45:17;;;;;;;30.97;15.23;;;;;;;;;;5027366;28;20267;-79
2022/12/18 12:47:44;;;;;;;30.50;15.90;;;;;;;;;;5010220;28;20762;-77
2022/12/18 12:50:20;;;;;;;28.17;16.23;;;;;;;;;;5015817;28;20292;-78
2022/12/18 12:52:48;;;;;;;33.03;15.57;;;;;;;;;;5030585;28;20267;-77
2022/12/18 12:55:34;;;;;;;32.37;16.33;;;;;;;;;;5014436;28;20272;-77
2022/12/18 12:58:00;;;;;;;32.37;16.50;;;;;;;;;;5015661;28;20295;-79
2022/12/18 13:00:29;;;;;;;31.93;16.93;;;;;;;;;;5015961;28;20778;-78
2022/12/18 13:02:55;;;;;;;32.80;16.53;;;;;;;;;;5010170;28;20026;-79
2022/12/18 13:05:29;;;;;;;32.03;17.27;;;;;;;;;;5009858;28;20430;-78
2022/12/18 13:08:02;;;;;;;30.27;16.73;;;;;;;;;;5010710;28;20650;-76
2022/12/18 13:10:33;;;;;;;30.13;16.20;;;;;;;;;;5007057;28;20302;-77
2022/12/18 13:12:59;;;;;;;29.83;16.37;;;;;;;;;;5010146;28;20280;-77
2022/12/18 13:15:28;;;;;;;38.20;18.20;;;;;;;;;;5012249;28;20363;-77
2022/12/18 13:18:24;;;;;;;34.10;17.30;;;;;;;;;;5016675;28;20260;-78
2022/12/18 13:20:51;;;;;;;36.83;18.03;;;;;;;;;;4995365;28;20749;-77
2022/12/18 13:23:20;;;;;;;35.93;18.20;;;;;;;;;;5038519;28;20268;-78
2022/12/18 13:25:46;;;;;;;32.93;17.07;;;;;;;;;;5012067;28;20280;-79
2022/12/18 13:28:35;;;;;;;32.93;17.70;;;;;;;;;;5022785;28;20275;-78
2022/12/18 13:31:01;;;;;;;33.40;16.87;;;;;;;;;;5010637;28;20367;-78
2022/12/18 13:33:30;;;;;;;34.23;18.60;;;;;;;;;;5019694;28;20261;-77
2022/12/18 13:36:23;;;;;;;35.50;19.50;;;;;;;;;;5023468;28;20361;-76
2022/12/18 13:39:08;;;;;;;32.45;17.70;;;;;;;;;;5015481;28;20300;-78
2022/12/18 13:41:34;;;;;;;37.27;18.23;;;;;;;;;;5026563;28;20025;-77
2022/12/18 13:44:19;;;;;;;35.97;19.07;;;;;;;;;;5018052;28;20292;-77
2022/12/18 13:46:46;;;;;;;36.73;18.57;;;;;;;;;;5024615;28;20269;-78
2022/12/18 13:49:12;;;;;;;34.00;18.30;;;;;;;;;;5036437;28;20276;-78
2022/12/18 13:51:42;;;;;;;32.83;17.60;;;;;;;;;;5024164;28;20272;-77
2022/12/18 13:54:21;;;;;;;32.60;17.27;;;;;;;;;;5012055;28;20116;-78
2022/12/18 13:56:50;;;;;;;36.97;16.63;;;;;;;;;;5013205;28;20272;-80
2022/12/18 13:59:23;;;;;;;36.23;19.07;;;;;;;;;;5019075;28;20802;-79
2022/12/18 14:01:57;;;;;;;38.43;19.70;;;;;;;;;;5016097;28;20580;-78
2022/12/18 14:04:27;;;;;;;45.40;19.83;;;;;;;;;;5018699;28;20268;-77
2022/12/18 14:06:56;;;;;;;38.57;18.77;;;;;;;;;;5015468;28;20278;-78
2022/12/18 14:09:27;;;;;;;35.90;18.63;;;;;;;;;;5019322;28;20272;-77
2022/12/18 14:12:56;;;;;;;38.47;18.43;;;;;;;;;;5046853;28;20279;-77
2022/12/18 14:14:42;;;;;;;38.07;19.13;;;;;;;;;;5038756;28;20276;-77
2022/12/18 14:17:11;;;;;;;37.20;18.23;;;;;;;;;;5018397;28;20256;-76
2022/12/18 14:19:44;;;;;;;33.07;17.80;;;;;;;;;;5018795;28;20296;-77
2022/12/18 14:22:20;;;;;;;41.40;18.90;;;;;;;;;;5010878;28;20630;-77
2022/12/18 14:24:47;;;;;;;34.70;18.47;;;;;;;;;;5017795;28;20369;-78
2022/12/18 14:27:26;;;;;;;37.73;20.00;;;;;;;;;;5034221;28;20342;-77
2022/12/18 14:29:52;;;;;;;36.93;19.10;;;;;;;;;;5017504;28;20687;-77
2022/12/18 14:32:22;;;;;;;38.20;18.77;;;;;;;;;;5016393;28;20269;-78
2022/12/18 14:34:53;;;;;;;38.83;19.80;;;;;;;;;;5007920;28;20271;-77
2022/12/18 14:37:24;;;;;;;36.73;19.27;;;;;;;;;;5010203;28;20759;-77
2022/12/18 14:39:54;;;;;;;42.40;18.97;;;;;;;;;;5016390;28;20287;-79